Time;durP1;ratioP1;P1;durP2;ratioP2;P2;SDS_P1;SDS_P2;PMS_P1;PMS_P2;Temp;Humidity;BMP_temperature;BMP_pressure;BME280_temperature;BME280_humidity;BME280_pressure;Samples;Min_cycle;Max_cycle;Signal;HPM_P1;HPM_P2
2022/05/30 00:03:20;;;;;;;7.2;10.8;;;;;;;-133;92.3;65230;;;;
2022/05/30 00:14:19;;;;;;;7.9;11.8;;;;;;;-133;93.4;65230;;;;
2022/05/30 00:24:19;;;;;;;7.9;11.8;;;;;;;-133;94.3;65230;;;;
2022/05/30 00:35:19;;;;;;;7.9;11.8;;;;;;;-133;93.9;65230;;;;
2022/05/30 00:45:19;;;;;;;9.1;10.6;;;;;;;-133;95;65230;;;;
2022/05/30 00:56:19;;;;;;;9.1;10.6;;;;;;;-133;94.6;65230;;;;
2022/05/30 01:06:35;;;;;;;9.1;10.6;;;;;;;-133;95.1;65240;;;;
2022/05/30 01:16:20;;;;;;;10.9;15;;;;;;;-133;95.5;65230;;;;
2022/05/30 01:26:19;;;;;;;10.9;15;;;;;;;-133;96.2;65230;;;;
2022/05/30 01:36:19;;;;;;;10.9;15;;;;;;;-133;96.6;65230;;;;
2022/05/30 01:47:19;;;;;;;13.5;15.5;;;;;;;-133;96.7;65230;;;;
2022/05/30 01:57:19;;;;;;;13.5;15.5;;;;;;;-133;97.1;65230;;;;
2022/05/30 02:08:21;;;;;;;17.4;20.3;;;;;;;-133;97.3;65230;;;;
2022/05/30 02:18:19;;;;;;;17.4;20.3;;;;;;;-133;97.5;65230;;;;
2022/05/30 02:29:19;;;;;;;17.4;20.3;;;;;;;-133;97.2;65230;;;;
2022/05/30 02:39:19;;;;;;;17;19.9;;;;;;;-133;97.5;65230;;;;
2022/05/30 02:49:19;;;;;;;17;19.9;;;;;;;-133;97.5;65230;;;;
2022/05/30 03:00:19;;;;;;;17;19.9;;;;;;;-133;97.7;65230;;;;
2022/05/30 03:10:19;;;;;;;17.1;25.9;;;;;;;-133;97.5;65230;;;;
2022/05/30 03:21:19;;;;;;;17.1;25.9;;;;;;;-133;97.5;65220;;;;
2022/05/30 03:32:20;;;;;;;17.1;25.9;;;;;;;-133;97.6;65230;;;;
2022/05/30 03:42:19;;;;;;;16.1;18.4;;;;;;;-133;97.7;65230;;;;
2022/05/30 03:53:19;;;;;;;16.1;18.4;;;;;;;-133;97.5;65230;;;;
2022/05/30 04:03:20;;;;;;;16.1;18.4;;;;;;;-133;97.3;65230;;;;
2022/05/30 04:14:19;;;;;;;18.1;20.9;;;;;;;-133;97;65230;;;;
2022/05/30 04:24:19;;;;;;;18.1;20.9;;;;;;;-133;96.7;65220;;;;
2022/05/30 04:34:20;;;;;;;18.1;20.9;;;;;;;-133;95.1;65220;;;;
2022/05/30 04:44:19;;;;;;;18.2;23.4;;;;;;;-133;94.7;65230;;;;
2022/05/30 04:55:21;;;;;;;18.2;23.4;;;;;;;-133;94.8;65230;;;;
2022/05/30 05:05:20;;;;;;;18.2;23.4;;;;;;;-133;94.8;65220;;;;
2022/05/30 05:15:19;;;;;;;17.7;20.2;;;;;;;-133;94;65220;;;;
2022/05/30 05:26:20;;;;;;;17.7;20.2;;;;;;;-133;93.5;65220;;;;
2022/05/30 05:36:20;;;;;;;17.7;20.2;;;;;;;-133;93.4;65220;;;;
2022/05/30 05:47:20;;;;;;;18;20.6;;;;;;;-133;92.6;65220;;;;
2022/05/30 05:58:20;;;;;;;18;20.6;;;;;;;-133;92;65210;;;;
2022/05/30 06:08:19;;;;;;;17.5;20.7;;;;;;;-133;92.8;65220;;;;
2022/05/30 06:19:20;;;;;;;17.5;20.7;;;;;;;-133;93.3;65220;;;;
2022/05/30 06:30:19;;;;;;;17.5;20.7;;;;;;;-133;94;65210;;;;
2022/05/30 06:41:20;;;;;;;13.8;16.5;;;;;;;-133;92.2;65220;;;;
2022/05/30 06:51:20;;;;;;;13.8;16.5;;;;;;;-133;92;65210;;;;
2022/05/30 07:02:20;;;;;;;13.8;16.5;;;;;;;-133;91.4;65210;;;;
2022/05/30 07:12:20;;;;;;;10.7;12.9;;;;;;;-133;92.2;65210;;;;
2022/05/30 07:22:20;;;;;;;10.7;12.9;;;;;;;-133;91.4;65210;;;;
2022/05/30 07:33:20;;;;;;;10.7;12.9;;;;;;;-133;86.6;65210;;;;
2022/05/30 07:43:20;;;;;;;8.6;12;;;;;;;-133;82.7;65210;;;;
2022/05/30 07:53:20;;;;;;;8.6;12;;;;;;;-133;80.5;65210;;;;
2022/05/30 08:04:20;;;;;;;8.6;12;;;;;;;-133;75.9;65210;;;;
2022/05/30 08:15:20;;;;;;;7.1;9;;;;;;;-133;73.4;65210;;;;
2022/05/30 08:26:20;;;;;;;7.1;9;;;;;;;-133;72.9;65210;;;;
2022/05/30 08:36:20;;;;;;;7.1;9;;;;;;;-133;71.7;65220;;;;
2022/05/30 08:47:20;;;;;;;5;8.5;;;;;;;-133;70.8;65210;;;;
2022/05/30 08:58:20;;;;;;;5;8.5;;;;;;;-133;67.8;65210;;;;
2022/05/30 09:09:20;;;;;;;3.3;5.4;;;;;;;-133;68;65210;;;;
2022/05/30 09:20:20;;;;;;;3.3;5.4;;;;;;;-133;64.8;65210;;;;
2022/05/30 09:30:20;;;;;;;3.3;5.4;;;;;;;-133;64;65210;;;;
2022/05/30 09:40:20;;;;;;;3;5.7;;;;;;;-133;65;65210;;;;
2022/05/30 09:51:20;;;;;;;3;5.7;;;;;;;-133;62.1;65220;;;;
2022/05/30 10:01:20;;;;;;;3;5.7;;;;;;;-133;60.2;65210;;;;
2022/05/30 10:11:20;;;;;;;3.1;6.2;;;;;;;-133;58.7;65210;;;;
2022/05/30 10:33:20;;;;;;;3.1;6.2;;;;;;;-133;59.5;65210;;;;
2022/05/30 10:44:21;;;;;;;3.4;5.9;;;;;;;-133;59.7;65220;;;;
2022/05/30 10:54:20;;;;;;;3.4;5.9;;;;;;;-133;56;65210;;;;
2022/05/30 11:04:20;;;;;;;3.4;5.9;;;;;;;-133;55.2;65220;;;;
2022/05/30 11:14:20;;;;;;;2.8;6;;;;;;;-133;56;65220;;;;
2022/05/30 11:25:20;;;;;;;2.8;6;;;;;;;-133;52.4;65220;;;;
2022/05/30 11:35:20;;;;;;;2.8;6;;;;;;;-133;53.4;65220;;;;
2022/05/30 11:45:21;;;;;;;2.8;4.9;;;;;;;-133;54.1;65220;;;;
2022/05/30 11:56:20;;;;;;;2.8;4.9;;;;;;;-133;52.6;65220;;;;
2022/05/30 12:06:20;;;;;;;2.8;4.9;;;;;;;-133;53.8;65210;;;;
2022/05/30 12:16:20;;;;;;;3.2;5.3;;;;;;;-133;51.7;65220;;;;
2022/05/30 12:27:20;;;;;;;3.2;5.3;;;;;;;-133;52.7;65220;;;;
2022/05/30 12:37:20;;;;;;;3.2;5.3;;;;;;;-133;52;65220;;;;
2022/05/30 12:47:20;;;;;;;3.5;6.4;;;;;;;-133;53.4;65220;;;;
2022/05/30 12:57:20;;;;;;;3.5;6.4;;;;;;;-133;49.7;65210;;;;
2022/05/30 13:08:20;;;;;;;3.2;5.4;;;;;;;-133;50.6;65220;;;;
2022/05/30 13:19:20;;;;;;;3.2;5.4;;;;;;;-133;51.1;65210;;;;
2022/05/30 13:30:20;;;;;;;3.2;5.4;;;;;;;-133;49.6;65220;;;;
2022/05/30 13:41:20;;;;;;;3.3;5.9;;;;;;;-133;51.3;65220;;;;
2022/05/30 13:52:20;;;;;;;3.3;5.9;;;;;;;-133;50.4;65220;;;;
2022/05/30 14:03:20;;;;;;;3.3;5.9;;;;;;;-133;49;65210;;;;
2022/05/30 14:14:21;;;;;;;3.8;6.7;;;;;;;-133;48.6;65220;;;;
2022/05/30 14:24:22;;;;;;;3.8;6.7;;;;;;;-133;47.9;65220;;;;
2022/05/30 14:34:25;;;;;;;3.8;6.7;;;;;;;-133;48;65220;;;;
2022/05/30 14:45:20;;;;;;;3.5;5;;;;;;;-133;45.6;65220;;;;
2022/05/30 14:55:20;;;;;;;3.5;5;;;;;;;-133;46.5;65220;;;;
2022/05/30 15:06:20;;;;;;;3.5;5;;;;;;;-133;41;65220;;;;
2022/05/30 15:17:20;;;;;;;2.8;4.9;;;;;;;-133;38.2;65210;;;;
2022/05/30 15:28:21;;;;;;;2.8;4.9;;;;;;;-133;34.8;65210;;;;
2022/05/30 15:38:20;;;;;;;2.5;5.4;;;;;;;-133;34.9;65210;;;;
2022/05/30 15:49:20;;;;;;;2.5;5.4;;;;;;;-133;34.4;65210;;;;
2022/05/30 16:00:20;;;;;;;2.5;5.4;;;;;;;-133;32.1;65210;;;;
2022/05/30 16:10:20;;;;;;;2.2;4.7;;;;;;;-133;32.5;65210;;;;
2022/05/30 16:21:21;;;;;;;2.2;4.7;;;;;;;-133;32.2;65210;;;;
2022/05/30 16:32:20;;;;;;;2.2;4.7;;;;;;;-133;31.2;65210;;;;
2022/05/30 16:43:20;;;;;;;2.9;5.7;;;;;;;-133;30.6;65210;;;;
2022/05/30 16:53:20;;;;;;;2.9;5.7;;;;;;;-133;30.5;65210;;;;
2022/05/30 17:04:20;;;;;;;2.9;5.7;;;;;;;-133;30.9;65220;;;;
2022/05/30 17:15:20;;;;;;;2.3;4.3;;;;;;;-133;37.8;65220;;;;
2022/05/30 17:36:20;;;;;;;2.3;4.3;;;;;;;-133;40.5;65220;;;;
2022/05/30 17:46:20;;;;;;;2.6;7.5;;;;;;;-133;40.1;65220;;;;
2022/05/30 17:56:20;;;;;;;2.6;7.5;;;;;;;-133;40.8;65220;;;;
2022/05/30 18:06:20;;;;;;;2.6;7.5;;;;;;;-133;44.9;65220;;;;
2022/05/30 18:16:20;;;;;;;2.7;5;;;;;;;-133;53.2;65220;;;;
2022/05/30 18:27:20;;;;;;;2.7;5;;;;;;;-133;54.8;65230;;;;
2022/05/30 18:37:20;;;;;;;2.7;5;;;;;;;-133;54.8;65230;;;;
2022/05/30 18:48:20;;;;;;;3.8;7.2;;;;;;;-133;59.1;65230;;;;
2022/05/30 18:58:20;;;;;;;3.8;7.2;;;;;;;-133;63.8;65240;;;;
2022/05/30 19:08:20;;;;;;;6.9;13.2;;;;;;;-133;67;65230;;;;
2022/05/30 19:18:20;;;;;;;6.9;13.2;;;;;;;-133;69.1;65230;;;;
2022/05/30 19:28:21;;;;;;;6.9;13.2;;;;;;;-133;71.7;65230;;;;
2022/05/30 19:39:20;;;;;;;8.6;10.8;;;;;;;-133;73.9;65230;;;;
2022/05/30 19:49:20;;;;;;;8.6;10.8;;;;;;;-133;75.8;65230;;;;
2022/05/30 20:00:21;;;;;;;8.6;10.8;;;;;;;-133;78.1;65230;;;;
2022/05/30 20:10:20;;;;;;;9.4;13.7;;;;;;;-133;79.9;65240;;;;
2022/05/30 20:20:20;;;;;;;9.4;13.7;;;;;;;-133;78.6;65230;;;;
2022/05/30 20:30:20;;;;;;;9.4;13.7;;;;;;;-133;81.5;65230;;;;
2022/05/30 20:51:20;;;;;;;8.3;12.3;;;;;;;-133;79.5;65240;;;;
2022/05/30 21:01:20;;;;;;;8.3;12.3;;;;;;;-133;82;65240;;;;
2022/05/30 21:11:20;;;;;;;19.2;27.4;;;;;;;-133;82;65240;;;;
2022/05/30 21:22:20;;;;;;;19.2;27.4;;;;;;;-133;83.4;65240;;;;
2022/05/30 21:32:20;;;;;;;19.2;27.4;;;;;;;-133;82.8;65240;;;;
2022/05/30 21:43:20;;;;;;;6.5;9.7;;;;;;;-133;85.3;65240;;;;
2022/05/30 21:53:20;;;;;;;6.5;9.7;;;;;;;-133;84.4;65240;;;;
2022/05/30 22:04:20;;;;;;;6.5;9.7;;;;;;;-133;87;65240;;;;
2022/05/30 22:14:20;;;;;;;6.7;10.3;;;;;;;-133;87.3;65240;;;;
2022/05/30 22:24:37;;;;;;;6.7;10.3;;;;;;;-133;89.6;65240;;;;
2022/05/30 22:34:20;;;;;;;6.7;10.3;;;;;;;-133;88.2;65240;;;;
2022/05/30 22:45:20;;;;;;;5.9;8.8;;;;;;;-133;87.6;65240;;;;
2022/05/30 22:56:20;;;;;;;5.9;8.8;;;;;;;-133;87.5;65240;;;;
2022/05/30 23:06:20;;;;;;;5.9;8.8;;;;;;;-133;88.9;65240;;;;
2022/05/30 23:16:20;;;;;;;6.2;7.8;;;;;;;-133;89.4;65240;;;;
2022/05/30 23:26:20;;;;;;;6.2;7.8;;;;;;;-133;88.9;65240;;;;
2022/05/30 23:37:20;;;;;;;8.2;11.6;;;;;;;-133;90.6;65250;;;;
2022/05/30 23:47:20;;;;;;;8.2;11.6;;;;;;;-133;94.7;65240;;;;
2022/05/30 23:58:20;;;;;;;8.2;11.6;;;;;;;-133;96.8;65240;;;;
